Time;durP1;ratioP1;P1;durP2;ratioP2;P2;SDS_P1;SDS_P2;PMS_P1;PMS_P2;Temp;Humidity;BMP_temperature;BMP_pressure;BME280_temperature;BME280_humidity;BME280_pressure;Samples;Min_cycle;Max_cycle;Signal;HPM_P1;HPM_P2
2024/01/20 05:06:23;;;;;;;0.40;0.40;;;-1.20;99.90;;;;;;6131593;23;20232;-60
2024/01/20 05:08:49;;;;;;;0.40;0.40;;;-1.20;99.90;;;;;;4974960;28;20202;-59
2024/01/20 05:11:14;;;;;;;0.40;0.40;;;-1.20;99.90;;;;;;4976800;28;20291;-59
2024/01/20 05:13:40;;;;;;;0.50;0.50;;;-1.40;99.90;;;;;;4976473;28;20184;-59
2024/01/20 05:16:06;;;;;;;0.60;0.60;;;-1.30;99.90;;;;;;4976138;28;20686;-59
2024/01/20 05:18:31;;;;;;;0.40;0.40;;;-1.40;99.90;;;;;;4976470;28;20233;-59
2024/01/20 05:20:57;;;;;;;0.50;0.50;;;-1.40;99.90;;;;;;4976523;28;20184;-58
2024/01/20 05:23:22;;;;;;;0.40;0.40;;;-1.40;99.90;;;;;;4976554;28;20658;-59
2024/01/20 05:25:48;;;;;;;0.40;0.40;;;-1.40;99.90;;;;;;4975997;28;20208;-59
2024/01/20 05:28:14;;;;;;;0.70;0.70;;;-1.40;99.90;;;;;;4975356;28;20534;-60
2024/01/20 05:30:40;;;;;;;0.40;0.40;;;-1.40;99.90;;;;;;4976440;28;20252;-59
2024/01/20 05:33:07;;;;;;;0.73;0.73;;;-1.50;99.90;;;;;;4976150;28;20203;-59
2024/01/20 05:35:32;;;;;;;0.40;0.40;;;-1.50;99.90;;;;;;4975021;28;20553;-59
2024/01/20 05:37:58;;;;;;;0.40;0.40;;;-1.50;99.90;;;;;;4976480;28;20176;-59
2024/01/20 05:40:24;;;;;;;0.43;0.43;;;-1.60;99.90;;;;;;4976357;28;20730;-59
2024/01/20 05:42:49;;;;;;;0.40;0.40;;;-1.60;99.90;;;;;;4976066;28;20262;-59
2024/01/20 05:45:15;;;;;;;0.40;0.40;;;-1.60;99.90;;;;;;4975960;28;20646;-59
2024/01/20 05:47:41;;;;;;;0.63;0.63;;;-1.60;99.90;;;;;;4976118;28;20538;-60
2024/01/20 05:50:07;;;;;;;1.30;1.30;;;-1.50;99.90;;;;;;4976154;28;20180;-59
2024/01/20 05:52:33;;;;;;;0.40;0.40;;;-1.50;99.90;;;;;;4976012;28;20207;-59
2024/01/20 05:54:59;;;;;;;0.40;0.40;;;-1.60;99.90;;;;;;4974272;28;20176;-59
2024/01/20 05:57:25;;;;;;;0.43;0.43;;;-1.60;99.90;;;;;;4975911;28;20314;-59
2024/01/20 05:59:50;;;;;;;0.50;0.50;;;-1.70;99.90;;;;;;4974323;28;20179;-59
2024/01/20 06:02:16;;;;;;;0.40;0.40;;;-1.80;99.90;;;;;;4975895;28;20172;-59
2024/01/20 06:04:42;;;;;;;0.40;0.40;;;-1.80;99.90;;;;;;4975718;28;20168;-59
2024/01/20 06:07:07;;;;;;;0.40;0.40;;;-1.70;99.90;;;;;;4975525;28;20258;-59
2024/01/20 06:09:33;;;;;;;0.40;0.40;;;-1.70;99.90;;;;;;4975628;28;20172;-58
2024/01/20 06:11:58;;;;;;;0.40;0.40;;;-1.70;99.90;;;;;;4975650;28;20246;-59
2024/01/20 06:14:24;;;;;;;0.40;0.40;;;-1.80;99.90;;;;;;4975280;28;20649;-59
2024/01/20 06:16:49;;;;;;;0.30;0.30;;;-1.80;99.90;;;;;;4975582;28;20203;-59
2024/01/20 06:19:15;;;;;;;0.30;0.30;;;-1.80;99.90;;;;;;4975590;28;20634;-59
2024/01/20 06:21:41;;;;;;;0.40;0.40;;;-1.80;99.90;;;;;;4975454;28;20605;-59
2024/01/20 06:24:07;;;;;;;0.40;0.40;;;-1.90;99.90;;;;;;4975381;28;20168;-60
2024/01/20 06:26:33;;;;;;;0.40;0.40;;;-1.90;99.90;;;;;;4975163;28;20661;-58
2024/01/20 06:28:58;;;;;;;0.47;0.47;;;-1.90;99.90;;;;;;4975368;28;20186;-59
2024/01/20 06:31:25;;;;;;;0.43;0.43;;;-1.90;99.90;;;;;;4975380;28;20657;-58
2024/01/20 06:33:52;;;;;;;0.40;0.40;;;-1.90;99.90;;;;;;4975089;28;20216;-59
2024/01/20 06:36:18;;;;;;;0.40;0.40;;;-1.90;99.90;;;;;;4975056;28;20254;-59
2024/01/20 06:38:43;;;;;;;0.40;0.40;;;-2.00;99.90;;;;;;4975106;28;20187;-59
2024/01/20 06:41:10;;;;;;;0.40;0.40;;;-2.00;99.90;;;;;;4975163;28;20572;-60
2024/01/20 06:43:36;;;;;;;1.70;1.60;;;-1.90;99.90;;;;;;4975260;28;20181;-59
2024/01/20 06:46:02;;;;;;;0.40;0.40;;;-2.10;99.90;;;;;;4974661;28;20194;-60
2024/01/20 06:48:32;;;;;;;0.50;0.50;;;-2.10;99.90;;;;;;4974889;28;20258;-60
2024/01/20 06:50:59;;;;;;;0.40;0.40;;;-2.10;99.90;;;;;;4975015;28;20219;-60
2024/01/20 06:53:26;;;;;;;0.40;0.40;;;-2.10;99.90;;;;;;4974869;28;20543;-60
2024/01/20 06:55:52;;;;;;;1.42;1.33;;;-2.20;99.90;;;;;;4974404;28;20273;-60
2024/01/20 06:58:17;;;;;;;0.40;0.40;;;-2.20;99.90;;;;;;4962877;28;20178;-58
2024/01/20 07:00:43;;;;;;;0.50;0.50;;;-2.20;99.90;;;;;;4973412;28;20176;-59
2024/01/20 07:03:08;;;;;;;0.30;0.30;;;-2.30;99.90;;;;;;4974647;28;20217;-58
2024/01/20 07:05:34;;;;;;;0.30;0.30;;;-2.30;99.90;;;;;;4974182;28;20210;-60
2024/01/20 07:08:00;;;;;;;0.40;0.40;;;-2.30;99.90;;;;;;4974425;28;20555;-58
2024/01/20 07:10:25;;;;;;;0.30;0.30;;;-2.30;99.90;;;;;;4974371;28;20173;-58
2024/01/20 07:12:51;;;;;;;0.40;0.40;;;-2.30;99.90;;;;;;4974407;28;20170;-58
2024/01/20 07:15:16;;;;;;;0.40;0.40;;;-2.30;99.90;;;;;;4974074;28;20528;-60
2024/01/20 07:17:42;;;;;;;0.40;0.40;;;-2.30;99.90;;;;;;4974397;28;20179;-58
2024/01/20 07:20:10;;;;;;;0.67;0.67;;;-2.30;99.90;;;;;;4974429;28;20164;-58
2024/01/20 07:22:36;;;;;;;0.60;0.60;;;-2.30;99.90;;;;;;4974368;28;20212;-59
2024/01/20 07:25:02;;;;;;;0.40;0.40;;;-2.20;99.90;;;;;;4973789;28;20172;-60
2024/01/20 07:27:28;;;;;;;0.45;0.45;;;-2.30;99.90;;;;;;4974095;28;20208;-57
2024/01/20 07:29:53;;;;;;;0.60;0.60;;;-2.30;99.90;;;;;;4972874;28;20207;-58
2024/01/20 07:32:19;;;;;;;0.47;0.47;;;-2.30;99.90;;;;;;4974026;28;20279;-57
2024/01/20 07:34:45;;;;;;;0.43;0.43;;;-2.30;99.90;;;;;;4973837;28;20222;-58
2024/01/20 07:37:11;;;;;;;0.40;0.40;;;-2.30;99.90;;;;;;4972618;28;20197;-60
2024/01/20 07:39:36;;;;;;;0.40;0.40;;;-2.40;99.90;;;;;;4973100;28;20646;-60
2024/01/20 07:42:02;;;;;;;0.40;0.40;;;-2.30;99.90;;;;;;4973614;28;20343;-60
2024/01/20 07:44:28;;;;;;;0.50;0.50;;;-2.30;99.90;;;;;;4973034;28;20412;-59
2024/01/20 07:46:53;;;;;;;0.30;0.30;;;-2.30;99.90;;;;;;4973327;28;20493;-57
2024/01/20 07:49:19;;;;;;;0.40;0.40;;;-2.30;99.90;;;;;;4973056;28;20667;-57
2024/01/20 07:51:45;;;;;;;0.40;0.40;;;-2.30;99.90;;;;;;4972760;28;20185;-59
2024/01/20 07:54:12;;;;;;;0.40;0.40;;;-2.30;99.90;;;;;;4972743;28;20448;-60
2024/01/20 07:56:37;;;;;;;0.40;0.40;;;-2.30;99.90;;;;;;4972880;28;20222;-60
2024/01/20 07:59:03;;;;;;;0.40;0.40;;;-2.30;99.90;;;;;;4973053;28;20187;-62
2024/01/20 08:01:29;;;;;;;0.30;0.30;;;-2.30;99.90;;;;;;4973323;28;20572;-60
2024/01/20 08:03:54;;;;;;;0.40;0.40;;;-2.20;99.90;;;;;;4973349;28;20224;-58
2024/01/20 08:06:20;;;;;;;0.40;0.40;;;-2.10;99.90;;;;;;4972615;28;20513;-59
2024/01/20 08:08:46;;;;;;;0.40;0.40;;;-2.10;99.90;;;;;;4972407;28;20254;-64
2024/01/20 08:11:12;;;;;;;0.60;0.60;;;-2.10;99.90;;;;;;4970880;28;20498;-59
2024/01/20 08:13:37;;;;;;;0.50;0.50;;;-2.10;99.90;;;;;;4972295;28;20427;-60
2024/01/20 08:16:04;;;;;;;0.40;0.40;;;-2.10;99.90;;;;;;4972894;28;20195;-65
2024/01/20 08:18:29;;;;;;;0.90;0.90;;;-2.10;99.90;;;;;;4972090;28;20414;-64
2024/01/20 08:20:55;;;;;;;0.40;0.40;;;-2.10;99.90;;;;;;4972709;28;20210;-60
2024/01/20 08:23:21;;;;;;;0.50;0.50;;;-2.10;99.90;;;;;;4977281;28;20699;-60
2024/01/20 08:25:46;;;;;;;0.70;0.70;;;-2.10;99.90;;;;;;4990083;28;20549;-60
2024/01/20 08:28:12;;;;;;;0.40;0.40;;;-2.00;99.90;;;;;;4991451;28;20452;-59
2024/01/20 08:30:37;;;;;;;0.63;0.63;;;-1.90;99.90;;;;;;4972602;28;20183;-59
2024/01/20 08:33:03;;;;;;;0.40;0.40;;;-2.00;99.90;;;;;;4973323;28;20652;-65
2024/01/20 08:35:29;;;;;;;0.50;0.50;;;-1.90;99.90;;;;;;4972305;28;20192;-67
2024/01/20 08:37:54;;;;;;;1.07;1.07;;;-2.00;99.90;;;;;;4975899;28;20585;-67
2024/01/20 08:40:20;;;;;;;0.40;0.40;;;-2.00;99.90;;;;;;4967890;28;20184;-67
2024/01/20 08:42:46;;;;;;;0.40;0.40;;;-2.00;99.90;;;;;;4971112;28;20549;-68
2024/01/20 08:45:11;;;;;;;0.50;0.50;;;-1.90;99.90;;;;;;4970405;28;20211;-67
2024/01/20 08:47:37;;;;;;;0.40;0.40;;;-2.00;99.90;;;;;;4968243;28;20173;-66
2024/01/20 08:50:03;;;;;;;0.30;0.30;;;-2.00;99.90;;;;;;4967430;28;20184;-66
2024/01/20 08:52:29;;;;;;;0.40;0.40;;;-2.00;99.90;;;;;;4966728;28;20278;-65
2024/01/20 08:54:55;;;;;;;0.40;0.40;;;-2.10;99.90;;;;;;4966815;28;20409;-65
2024/01/20 08:57:21;;;;;;;0.40;0.40;;;-2.10;99.90;;;;;;4969366;28;20497;-64
2024/01/20 08:59:47;;;;;;;0.80;0.80;;;-2.00;99.90;;;;;;4977402;28;20432;-65
2024/01/20 09:02:12;;;;;;;0.40;0.40;;;-1.80;99.90;;;;;;4973516;28;20557;-67
2024/01/20 09:04:38;;;;;;;0.60;0.60;;;-1.70;99.90;;;;;;4974622;28;20174;-65
2024/01/20 09:07:04;;;;;;;0.50;0.50;;;-1.80;99.90;;;;;;4974576;28;20214;-63
2024/01/20 09:09:29;;;;;;;0.40;0.40;;;-1.90;99.90;;;;;;4976242;28;20632;-65
2024/01/20 09:11:55;;;;;;;0.40;0.40;;;-1.80;99.90;;;;;;4976245;28;20458;-63
2024/01/20 09:14:21;;;;;;;0.30;0.30;;;-1.80;99.90;;;;;;4975510;28;20206;-65
2024/01/20 09:16:46;;;;;;;0.50;0.50;;;-1.70;99.90;;;;;;4969890;28;20255;-65
2024/01/20 09:19:12;;;;;;;0.40;0.40;;;-1.70;99.90;;;;;;4975623;28;20631;-66
2024/01/20 09:21:39;;;;;;;0.38;0.38;;;-1.60;99.90;;;;;;4975247;28;20293;-65
2024/01/20 09:24:04;;;;;;;0.40;0.40;;;-1.60;99.90;;;;;;4975919;28;20207;-68
2024/01/20 09:26:30;;;;;;;0.50;0.50;;;-1.60;99.90;;;;;;4975955;28;20211;-65
2024/01/20 09:28:56;;;;;;;0.40;0.40;;;-1.60;99.90;;;;;;4976149;28;20255;-65
2024/01/20 09:31:21;;;;;;;0.40;0.40;;;-1.70;99.90;;;;;;4975815;28;20212;-65
2024/01/20 09:33:47;;;;;;;0.50;0.50;;;-1.60;99.90;;;;;;4974069;28;20187;-67
2024/01/20 09:36:13;;;;;;;0.50;0.50;;;-1.60;99.90;;;;;;4975600;28;20443;-66
2024/01/20 09:38:38;;;;;;;0.30;0.30;;;-1.50;99.90;;;;;;4975848;28;20179;-65
2024/01/20 09:41:09;;;;;;;0.60;0.60;;;-1.50;99.90;;;;;;4975267;28;20231;-65
2024/01/20 09:43:38;;;;;;;0.40;0.40;;;-1.40;99.90;;;;;;4975013;28;20183;-66
2024/01/20 09:46:04;;;;;;;0.50;0.50;;;-1.30;99.90;;;;;;4974646;28;20192;-65
2024/01/20 09:48:30;;;;;;;0.40;0.40;;;-1.30;99.90;;;;;;4974780;28;20263;-65
2024/01/20 09:50:56;;;;;;;0.40;0.40;;;-1.30;99.90;;;;;;4975620;28;20179;-66
2024/01/20 09:53:22;;;;;;;0.50;0.50;;;-1.40;99.90;;;;;;4975434;28;20180;-67
2024/01/20 09:55:48;;;;;;;0.50;0.50;;;-1.30;99.90;;;;;;4975366;28;20563;-64
2024/01/20 09:58:16;;;;;;;0.50;0.50;;;-1.20;99.90;;;;;;4975012;28;20246;-63
2024/01/20 10:00:42;;;;;;;0.40;0.40;;;-1.10;99.90;;;;;;4972833;28;20658;-62
2024/01/20 10:03:09;;;;;;;0.30;0.30;;;-1.10;99.90;;;;;;4976464;28;20577;-62
2024/01/20 10:05:35;;;;;;;0.40;0.40;;;-1.00;99.90;;;;;;4974543;28;20195;-63
2024/01/20 10:08:02;;;;;;;0.50;0.50;;;-0.90;99.90;;;;;;4975002;28;20191;-65
2024/01/20 10:10:28;;;;;;;0.30;0.30;;;-0.80;99.90;;;;;;4975482;28;20167;-65
2024/01/20 10:12:54;;;;;;;0.40;0.40;;;-0.70;99.90;;;;;;4975446;28;20195;-64
2024/01/20 10:15:26;;;;;;;0.40;0.40;;;-0.50;99.90;;;;;;4971015;28;20199;-66
2024/01/20 10:17:51;;;;;;;0.30;0.30;;;-0.50;99.90;;;;;;4969654;28;20223;-67
2024/01/20 10:20:24;;;;;;;0.50;0.50;;;-0.40;99.90;;;;;;4972253;28;20180;-71
2024/01/20 10:22:51;;;;;;;0.30;0.30;;;-0.10;99.90;;;;;;4975186;28;20307;-65
2024/01/20 10:25:21;;;;;;;1.50;1.40;;;0.60;99.90;;;;;;4974374;28;20227;-64
2024/01/20 10:27:48;;;;;;;0.40;0.40;;;1.50;99.90;;;;;;4975065;28;20205;-66
2024/01/20 10:30:20;;;;;;;0.55;0.55;;;2.30;99.90;;;;;;4975094;28;20171;-65
2024/01/20 10:32:46;;;;;;;1.05;1.05;;;3.00;99.90;;;;;;4975044;28;20241;-67
2024/01/20 10:35:12;;;;;;;0.30;0.30;;;3.40;99.90;;;;;;4974588;28;20646;-67
2024/01/20 10:37:40;;;;;;;0.30;0.30;;;3.60;99.90;;;;;;4974427;28;20234;-67
2024/01/20 10:40:11;;;;;;;0.40;0.40;;;3.80;99.90;;;;;;4974182;28;20415;-67
2024/01/20 10:42:51;;;;;;;0.43;0.43;;;4.30;99.90;;;;;;4973569;28;20196;-69
2024/01/20 10:45:18;;;;;;;0.30;0.30;;;4.70;99.90;;;;;;4973754;28;20220;-67
2024/01/20 10:47:53;;;;;;;0.60;0.60;;;4.70;99.90;;;;;;4974746;28;20176;-67
2024/01/20 10:50:21;;;;;;;0.30;0.30;;;5.00;99.90;;;;;;4974314;28;20179;-66
2024/01/20 10:52:47;;;;;;;0.73;0.73;;;5.40;99.70;;;;;;4973476;28;20546;-65
2024/01/20 10:55:15;;;;;;;0.30;0.30;;;5.50;98.10;;;;;;4974147;28;20263;-67
2024/01/20 10:57:41;;;;;;;0.40;0.40;;;5.70;99.90;;;;;;4973266;28;20237;-66
2024/01/20 11:00:10;;;;;;;0.50;0.50;;;5.80;97.60;;;;;;4974478;28;20188;-66
2024/01/20 11:02:36;;;;;;;0.30;0.30;;;5.80;98.80;;;;;;4974095;28;20303;-66
2024/01/20 11:05:03;;;;;;;1.43;0.70;;;5.60;97.80;;;;;;4974137;28;20741;-66
2024/01/20 11:07:29;;;;;;;0.38;0.38;;;5.50;97.80;;;;;;4973916;28;20600;-67
2024/01/20 11:09:58;;;;;;;0.30;0.30;;;5.30;97.20;;;;;;4974170;28;20300;-65
2024/01/20 11:12:31;;;;;;;0.30;0.20;;;5.30;99.60;;;;;;4974301;28;20412;-65
2024/01/20 11:14:58;;;;;;;0.35;0.35;;;5.30;99.80;;;;;;4966508;28;20623;-65
2024/01/20 11:17:24;;;;;;;0.40;0.40;;;5.30;99.90;;;;;;4965625;28;20200;-63
2024/01/20 11:19:50;;;;;;;0.40;0.40;;;5.20;99.90;;;;;;4973210;28;20180;-66
2024/01/20 11:22:32;;;;;;;0.30;0.30;;;5.00;99.60;;;;;;4972298;28;20549;-65
2024/01/20 11:25:03;;;;;;;0.32;0.32;;;4.50;99.10;;;;;;4964180;28;20203;-65
2024/01/20 11:27:49;;;;;;;0.30;0.30;;;4.00;98.20;;;;;;4973111;28;20307;-63
2024/01/20 11:30:28;;;;;;;0.30;0.30;;;3.40;98.30;;;;;;4972837;28;20183;-63
2024/01/20 11:32:55;;;;;;;0.30;0.30;;;2.90;99.10;;;;;;4973519;28;20189;-64
2024/01/20 11:35:21;;;;;;;0.30;0.30;;;2.50;99.90;;;;;;4973060;28;20252;-66
2024/01/20 11:37:48;;;;;;;0.47;0.47;;;2.30;99.90;;;;;;4973568;28;20168;-64
2024/01/20 11:40:13;;;;;;;1.13;1.13;;;2.00;99.90;;;;;;4973763;28;20192;-64
2024/01/20 11:42:39;;;;;;;1.33;1.23;;;1.70;99.90;;;;;;4972392;28;20209;-62
2024/01/20 11:45:06;;;;;;;0.40;0.40;;;1.50;99.90;;;;;;4972751;28;20528;-64
2024/01/20 11:47:32;;;;;;;0.40;0.40;;;1.30;99.90;;;;;;4972596;28;20171;-64
2024/01/20 11:49:58;;;;;;;0.40;0.40;;;1.10;99.90;;;;;;4973531;28;20563;-63
2024/01/20 11:52:27;;;;;;;1.83;1.73;;;0.90;99.90;;;;;;4973461;28;20180;-61
2024/01/20 11:54:53;;;;;;;0.32;0.32;;;0.90;99.90;;;;;;4972994;28;20549;-63
2024/01/20 11:57:30;;;;;;;0.30;0.30;;;0.80;99.90;;;;;;4973451;28;20247;-65
2024/01/20 11:59:59;;;;;;;0.30;0.30;;;0.80;99.90;;;;;;4972021;28;20767;-62
2024/01/20 12:02:27;;;;;;;3.17;2.97;;;0.70;99.90;;;;;;4966104;28;20569;-62
2024/01/20 12:04:54;;;;;;;0.40;0.40;;;0.70;99.90;;;;;;4966140;28;20644;-63
2024/01/20 12:07:20;;;;;;;0.40;0.40;;;0.60;99.90;;;;;;4972076;28;20196;-66
2024/01/20 12:09:46;;;;;;;0.40;0.40;;;0.50;99.90;;;;;;4973024;28;20180;-64
2024/01/20 12:12:15;;;;;;;0.40;0.40;;;0.50;99.90;;;;;;4972956;28;20602;-66
2024/01/20 12:14:42;;;;;;;0.65;0.65;;;0.50;99.90;;;;;;4971277;28;20194;-62
2024/01/20 12:17:09;;;;;;;0.38;0.38;;;0.50;99.90;;;;;;4973104;28;20203;-63
2024/01/20 12:19:38;;;;;;;0.40;0.40;;;0.50;99.90;;;;;;4972861;28;20180;-64
2024/01/20 12:22:09;;;;;;;0.40;0.40;;;0.60;99.90;;;;;;4973176;28;20199;-65
2024/01/20 12:24:35;;;;;;;0.40;0.40;;;0.60;99.90;;;;;;4972575;28;20595;-64
2024/01/20 12:27:04;;;;;;;0.60;0.60;;;0.70;99.90;;;;;;4966549;28;20246;-64
2024/01/20 12:29:30;;;;;;;0.40;0.40;;;0.70;99.90;;;;;;4991568;28;20214;-66
2024/01/20 12:31:59;;;;;;;0.30;0.30;;;0.80;99.90;;;;;;4981382;28;20184;-63
2024/01/20 12:34:25;;;;;;;0.40;0.40;;;0.90;99.90;;;;;;4972972;28;20235;-63
2024/01/20 12:36:56;;;;;;;0.40;0.40;;;1.00;99.90;;;;;;4973247;28;20203;-64
2024/01/20 12:39:23;;;;;;;0.30;0.30;;;1.10;99.90;;;;;;4976787;28;20262;-64
2024/01/20 12:41:49;;;;;;;0.40;0.40;;;1.10;99.90;;;;;;4976767;28;20343;-64
2024/01/20 12:44:15;;;;;;;0.47;0.47;;;1.20;99.90;;;;;;4976411;28;20182;-64
2024/01/20 12:46:41;;;;;;;0.40;0.40;;;1.30;99.90;;;;;;4976468;28;20198;-64
2024/01/20 12:49:07;;;;;;;0.50;0.50;;;1.30;99.90;;;;;;4976269;28;20168;-64
2024/01/20 12:51:33;;;;;;;0.47;0.47;;;1.40;99.90;;;;;;4976790;28;20211;-63
2024/01/20 12:53:59;;;;;;;0.40;0.40;;;1.40;99.90;;;;;;4975565;28;20176;-63
2024/01/20 12:56:25;;;;;;;0.30;0.30;;;1.30;99.90;;;;;;4975255;28;20441;-63
2024/01/20 12:58:50;;;;;;;0.40;0.40;;;1.30;99.90;;;;;;4977133;28;20495;-64
2024/01/20 13:01:22;;;;;;;0.30;0.30;;;1.40;99.90;;;;;;4976906;28;20196;-63
2024/01/20 13:03:48;;;;;;;0.40;0.40;;;1.50;99.90;;;;;;4976986;28;20526;-63
2024/01/20 13:06:13;;;;;;;0.40;0.40;;;1.50;99.90;;;;;;4976084;28;20199;-64
2024/01/20 13:08:39;;;;;;;0.30;0.30;;;1.60;99.90;;;;;;4976706;28;20192;-63
2024/01/20 13:11:04;;;;;;;0.30;0.30;;;1.60;99.90;;;;;;4976716;28;20169;-63
2024/01/20 13:13:30;;;;;;;0.40;0.40;;;1.70;99.90;;;;;;4976669;28;20635;-63
2024/01/20 13:15:56;;;;;;;0.30;0.30;;;1.70;99.90;;;;;;4976402;28;20203;-64
2024/01/20 13:18:21;;;;;;;0.30;0.30;;;1.70;99.90;;;;;;4976812;28;20204;-65
2024/01/20 13:20:47;;;;;;;0.30;0.30;;;1.70;99.90;;;;;;4976543;28;20546;-64
2024/01/20 13:23:13;;;;;;;0.50;0.50;;;1.70;99.90;;;;;;4976437;28;20314;-65
2024/01/20 13:25:39;;;;;;;0.40;0.40;;;1.70;99.90;;;;;;4976038;28;20188;-63
2024/01/20 13:28:05;;;;;;;0.30;0.30;;;1.80;99.90;;;;;;4976253;28;20238;-64
2024/01/20 13:30:31;;;;;;;0.40;0.40;;;1.80;99.90;;;;;;4976148;28;20172;-63
2024/01/20 13:32:57;;;;;;;0.30;0.30;;;1.70;99.90;;;;;;4976415;28;20180;-63
2024/01/20 13:35:23;;;;;;;0.30;0.30;;;1.80;99.90;;;;;;4974460;28;20219;-63
2024/01/20 13:37:49;;;;;;;0.40;0.40;;;1.80;99.90;;;;;;4976280;28;20184;-63
2024/01/20 13:40:14;;;;;;;0.70;0.70;;;1.80;99.90;;;;;;4976194;28;20171;-63
2024/01/20 13:42:40;;;;;;;0.60;0.60;;;1.90;99.90;;;;;;4976057;28;20214;-63
2024/01/20 13:45:07;;;;;;;0.40;0.40;;;1.90;99.90;;;;;;4975385;28;20180;-63
2024/01/20 13:47:33;;;;;;;0.30;0.30;;;1.90;99.90;;;;;;4974587;28;20179;-64
2024/01/20 13:49:59;;;;;;;0.30;0.30;;;2.00;99.90;;;;;;4975230;28;20263;-63
2024/01/20 13:52:25;;;;;;;1.37;1.37;;;2.00;99.90;;;;;;4975830;28;20218;-63
2024/01/20 13:54:50;;;;;;;0.40;0.40;;;2.10;99.90;;;;;;4975401;28;20411;-64
2024/01/20 13:57:16;;;;;;;0.30;0.30;;;2.10;99.90;;;;;;4975707;28;20202;-64
2024/01/20 13:59:42;;;;;;;0.43;0.43;;;2.10;99.90;;;;;;4975988;28;20198;-65
2024/01/20 14:02:08;;;;;;;0.30;0.30;;;2.10;99.90;;;;;;4975883;28;20211;-65
2024/01/20 14:04:34;;;;;;;0.30;0.30;;;2.20;99.90;;;;;;4975449;28;20212;-64
2024/01/20 14:07:02;;;;;;;0.30;0.30;;;2.20;99.90;;;;;;4975246;28;20250;-65
2024/01/20 14:09:27;;;;;;;1.05;0.95;;;2.20;99.90;;;;;;4976125;28;20184;-64
2024/01/20 14:11:53;;;;;;;0.30;0.30;;;2.20;99.90;;;;;;4975769;28;20636;-64
2024/01/20 14:14:19;;;;;;;0.30;0.30;;;2.20;99.90;;;;;;4975211;28;20187;-64
2024/01/20 14:16:55;;;;;;;0.40;0.40;;;2.20;99.90;;;;;;4975464;28;20204;-64
2024/01/20 14:19:21;;;;;;;0.32;0.32;;;2.20;99.90;;;;;;4976473;28;20202;-65
2024/01/20 14:21:47;;;;;;;0.30;0.30;;;2.20;99.90;;;;;;4994581;28;20199;-64
2024/01/20 14:24:12;;;;;;;0.97;0.97;;;2.20;99.90;;;;;;4994533;28;20178;-65
2024/01/20 14:26:39;;;;;;;0.40;0.40;;;2.20;99.90;;;;;;4994523;28;20664;-64
2024/01/20 14:29:08;;;;;;;0.40;0.40;;;2.20;99.90;;;;;;4994413;28;20168;-64
2024/01/20 14:31:33;;;;;;;0.40;0.40;;;2.20;99.90;;;;;;4994426;28;20167;-65
2024/01/20 14:33:59;;;;;;;0.40;0.40;;;2.30;99.90;;;;;;4994475;28;20254;-65
2024/01/20 14:36:24;;;;;;;0.40;0.40;;;2.30;99.90;;;;;;4992646;28;20187;-65
2024/01/20 14:38:50;;;;;;;0.40;0.40;;;2.30;99.90;;;;;;4994310;28;20588;-66
2024/01/20 14:41:15;;;;;;;0.30;0.30;;;2.30;99.90;;;;;;4994374;28;20199;-64
2024/01/20 14:43:41;;;;;;;0.30;0.30;;;2.20;99.90;;;;;;4994346;28;20223;-65
2024/01/20 14:46:07;;;;;;;0.80;0.80;;;2.20;99.90;;;;;;4993848;28;20491;-65
2024/01/20 14:48:33;;;;;;;0.43;0.43;;;2.20;99.90;;;;;;4992820;28;20218;-65
2024/01/20 14:50:58;;;;;;;0.30;0.30;;;2.20;99.90;;;;;;4994113;28;20407;-64
2024/01/20 14:53:24;;;;;;;0.30;0.30;;;2.20;99.90;;;;;;4994295;28;20425;-65
2024/01/20 14:55:49;;;;;;;0.30;0.30;;;2.10;99.90;;;;;;4993725;28;20645;-65
2024/01/20 14:58:15;;;;;;;0.50;0.50;;;2.10;99.90;;;;;;4994052;28;20171;-66
2024/01/20 15:00:41;;;;;;;0.40;0.40;;;2.10;99.90;;;;;;4994136;28;20194;-65
2024/01/20 15:03:06;;;;;;;0.50;0.50;;;2.10;99.90;;;;;;4994089;28;20207;-65
2024/01/20 15:05:32;;;;;;;0.40;0.40;;;2.10;99.90;;;;;;4993366;28;20191;-65
2024/01/20 15:07:58;;;;;;;0.30;0.30;;;2.20;99.90;;;;;;4993746;28;20649;-65
2024/01/20 15:10:23;;;;;;;0.30;0.30;;;2.10;99.90;;;;;;4993531;28;20217;-65
2024/01/20 15:12:49;;;;;;;0.40;0.40;;;2.10;99.90;;;;;;4993732;28;20262;-65
2024/01/20 15:15:14;;;;;;;0.30;0.30;;;2.10;99.90;;;;;;4993286;28;20195;-65
2024/01/20 15:17:40;;;;;;;0.40;0.40;;;2.10;99.90;;;;;;4993803;28;20163;-65
2024/01/20 15:20:06;;;;;;;0.40;0.40;;;2.10;99.90;;;;;;4986264;28;20180;-65
2024/01/20 15:22:32;;;;;;;0.40;0.40;;;2.00;99.90;;;;;;4974001;28;20204;-65
2024/01/20 15:24:57;;;;;;;0.43;0.43;;;2.00;99.90;;;;;;4973716;28;20247;-65
2024/01/20 15:27:23;;;;;;;0.30;0.30;;;1.90;99.90;;;;;;4974165;28;20176;-65
2024/01/20 15:29:49;;;;;;;0.30;0.30;;;1.90;99.90;;;;;;4973992;28;20176;-65
2024/01/20 15:32:14;;;;;;;0.30;0.30;;;1.80;99.90;;;;;;4974087;28;20263;-65
2024/01/20 15:34:40;;;;;;;0.30;0.30;;;1.80;99.90;;;;;;4973804;28;20203;-64
2024/01/20 15:37:06;;;;;;;0.30;0.30;;;1.70;99.90;;;;;;4973778;28;20554;-64
2024/01/20 15:39:31;;;;;;;0.30;0.30;;;1.60;99.90;;;;;;4973863;28;20241;-64
2024/01/20 15:41:57;;;;;;;0.83;0.83;;;1.60;99.90;;;;;;4973803;28;20196;-64
2024/01/20 15:44:22;;;;;;;1.67;1.57;;;1.50;99.90;;;;;;4973621;28;20203;-64
2024/01/20 15:46:48;;;;;;;0.30;0.30;;;1.40;99.90;;;;;;4973688;28;20216;-65
2024/01/20 15:49:15;;;;;;;0.47;0.47;;;1.30;99.90;;;;;;4973647;28;20167;-64
2024/01/20 15:51:41;;;;;;;0.40;0.40;;;1.30;99.90;;;;;;4973748;28;20180;-64
2024/01/20 15:54:08;;;;;;;0.30;0.30;;;1.20;99.90;;;;;;4972119;28;20634;-66
2024/01/20 15:56:40;;;;;;;0.43;0.43;;;1.10;99.90;;;;;;4973606;28;20188;-64
2024/01/20 15:59:05;;;;;;;4.03;1.40;;;1.00;99.90;;;;;;4973530;28;20222;-65
2024/01/20 16:01:31;;;;;;;0.30;0.30;;;0.90;99.90;;;;;;4973657;28;20199;-65
2024/01/20 16:03:56;;;;;;;0.47;0.47;;;0.80;99.90;;;;;;4973679;28;20251;-65
2024/01/20 16:06:22;;;;;;;0.60;0.60;;;0.80;99.90;;;;;;4973013;28;20188;-66
2024/01/20 16:08:47;;;;;;;0.47;0.47;;;0.70;99.90;;;;;;4973540;28;20195;-64
2024/01/20 16:11:13;;;;;;;0.40;0.40;;;0.60;99.90;;;;;;4973639;28;20224;-64
2024/01/20 16:13:38;;;;;;;0.40;0.40;;;0.60;99.90;;;;;;4977647;28;20180;-64
2024/01/20 16:16:04;;;;;;;0.40;0.40;;;0.50;99.90;;;;;;4976846;28;20292;-64
2024/01/20 16:18:30;;;;;;;0.40;0.40;;;0.50;99.90;;;;;;4977345;28;20183;-65
2024/01/20 16:20:58;;;;;;;0.30;0.30;;;0.40;99.90;;;;;;4991176;28;20175;-64
2024/01/20 16:23:23;;;;;;;0.43;0.43;;;0.40;99.90;;;;;;4996825;28;20233;-64
2024/01/20 16:25:49;;;;;;;0.50;0.50;;;0.30;99.90;;;;;;4996361;28;20199;-64
2024/01/20 16:28:14;;;;;;;0.33;0.33;;;0.20;99.90;;;;;;4996659;28;20170;-64
2024/01/20 16:30:40;;;;;;;0.30;0.30;;;0.20;99.90;;;;;;4996538;28;20183;-64
2024/01/20 16:33:06;;;;;;;0.40;0.40;;;0.20;99.90;;;;;;4997079;28;20507;-64
2024/01/20 16:35:31;;;;;;;0.40;0.40;;;0.20;99.90;;;;;;4996251;28;20200;-64
2024/01/20 16:37:57;;;;;;;0.30;0.30;;;0.10;99.90;;;;;;4996372;28;20225;-64
2024/01/20 16:40:24;;;;;;;0.30;0.30;;;0.10;99.90;;;;;;4995329;28;20418;-64
2024/01/20 16:42:49;;;;;;;0.47;0.47;;;0.10;99.90;;;;;;4996428;28;20218;-64
2024/01/20 16:45:15;;;;;;;0.40;0.40;;;0.10;99.90;;;;;;4996045;28;20191;-64
2024/01/20 16:47:41;;;;;;;0.30;0.30;;;0.10;99.90;;;;;;4996338;28;20201;-64
2024/01/20 16:50:06;;;;;;;0.40;0.40;;;0.10;99.90;;;;;;4994942;28;20277;-64
2024/01/20 16:52:32;;;;;;;0.40;0.40;;;0.00;99.90;;;;;;4995077;28;20174;-64
2024/01/20 16:54:58;;;;;;;0.40;0.40;;;0.00;99.90;;;;;;4995807;28;20178;-65
2024/01/20 16:57:23;;;;;;;0.30;0.30;;;0.00;99.90;;;;;;4996319;28;20203;-64
2024/01/20 16:59:49;;;;;;;0.40;0.40;;;-0.10;99.90;;;;;;4996146;28;20180;-65
2024/01/20 17:02:15;;;;;;;0.40;0.40;;;-0.10;99.90;;;;;;4995641;28;20210;-64
2024/01/20 17:04:41;;;;;;;0.37;0.37;;;-0.10;99.90;;;;;;4995621;28;20247;-64
2024/01/20 17:07:06;;;;;;;0.30;0.30;;;-0.10;99.90;;;;;;4996007;28;20395;-65
2024/01/20 17:09:32;;;;;;;0.40;0.40;;;-0.10;99.90;;;;;;4996042;28;20507;-65
2024/01/20 17:11:57;;;;;;;0.40;0.40;;;-0.10;99.90;;;;;;4995945;28;20583;-65
2024/01/20 17:14:24;;;;;;;0.30;0.30;;;-0.10;99.90;;;;;;4995430;28;20363;-65
2024/01/20 17:16:50;;;;;;;0.32;0.32;;;-0.10;99.90;;;;;;4995921;28;20229;-65
2024/01/20 17:19:16;;;;;;;0.40;0.40;;;-0.20;99.90;;;;;;4995624;28;20550;-65
2024/01/20 17:21:41;;;;;;;0.40;0.40;;;-0.10;99.90;;;;;;4976432;28;20213;-64
2024/01/20 17:24:07;;;;;;;0.50;0.50;;;-0.20;99.90;;;;;;4973559;28;20176;-65
2024/01/20 17:26:32;;;;;;;0.40;0.40;;;-0.20;99.90;;;;;;4976221;28;20504;-64
2024/01/20 17:28:59;;;;;;;0.43;0.43;;;-0.20;99.90;;;;;;4975999;28;20198;-66
2024/01/20 17:31:34;;;;;;;0.30;0.30;;;-0.20;99.90;;;;;;4976227;28;20179;-64
2024/01/20 17:34:00;;;;;;;0.47;0.47;;;-0.30;99.90;;;;;;4976547;28;20273;-64
2024/01/20 17:36:26;;;;;;;0.40;0.40;;;-0.30;99.90;;;;;;4975804;28;20206;-63
2024/01/20 17:38:51;;;;;;;0.40;0.40;;;-0.40;99.90;;;;;;4976311;28;20266;-65
2024/01/20 17:41:17;;;;;;;1.03;1.03;;;-0.40;99.90;;;;;;4976240;28;20203;-64
2024/01/20 17:43:43;;;;;;;0.40;0.40;;;-0.40;99.90;;;;;;4976305;28;20175;-64
2024/01/20 17:46:10;;;;;;;0.33;0.33;;;-0.40;99.90;;;;;;4975647;28;20269;-63
2024/01/20 17:48:35;;;;;;;0.30;0.30;;;-0.30;99.90;;;;;;4976207;28;20175;-64
2024/01/20 17:51:01;;;;;;;1.57;1.57;;;-0.30;99.90;;;;;;4958693;28;20187;-65
2024/01/20 17:53:33;;;;;;;0.33;0.33;;;-0.40;99.90;;;;;;4975691;28;20201;-66